Aérodrome :
LOGIN :

S'inscrire | Disclaimer

   EN    FR    IT 

 










Légende :    VFR   VFR Marginal   IFR   IFR Intensif   IFR Très Intensif
Visi : 
Plafond : 
>= 8 km
>= 3000ft
5 à 8 km
1000 à 3000 ft
1500m à 5 km
500 à 1000 ft
800 à 1500m
200 à 500 ft
< 800m
< 200 ft
Symboles :   Orages  Brouillard  Fortes neiges  Fortes précipitations  Vent > 20 kt
SIGMETs :   Divers  Orages  Givrage  Turbulence  Onde Orograph.  Cendres Volcan.







- Altitude de l'aérodrome : 609 ft
- Code IATA : BJZ


LEBZ - Badajoz

DERNIER METAR :
  • 181800Z 16007KT 130V190 9999 SCT040TCU 16/13 Q1009

METARs EXPIRÉS :
  • 181746Z 15010KT 9999 VCTS SCT035CB 16/13 Q1009 RERA
  • 181725Z 14020KT 100V160 5000 TS SHRA BKN028CB 16/13 Q1009
  • 181714Z 12025KT 9999 BKN028CB 18/13 Q1009
  • 181700Z 12007KT 070V160 9999 FEW048TCU 21/16 Q1008
  • 181600Z 02007KT 360V060 9999 FEW048TCU 21/14 Q1007
  • 181537Z VRB04KT 9999 VCTS FEW048CB 22/13 Q1007

TAF AMD TAF LEBZ
Valide du 18 à 18h jusqu'au 19 à 18h UTC


181717Z 1818/1918 08005KT 9999 FEW035 TX20/1915Z TN12/1906Z
TEMPO 1818/1820 12020G30KT 4000 SHRA SCT035TCU BKN040
PROB30
TEMPO 1818/1820 3000 TSRA SCT030CB
PROB40
TEMPO 1903/1912 4000 RA BKN025
Pas de NOTAMs connus pour ce terrain.
5 SIGMETs publiés pour la FIR Madrid (LECM) :
 
Orages noyés dans la masse
LECM SIGMET 16 VALID 181800/182000 LEVA
LECM MADRID FIR/UIR EMBD TS OBS AT 1750Z W OF LINE N3920 W00540 - N3750 W00610 TOP FL320 MOV W 20KT NC=
Orages noyés dans la masse
LECM SIGMET 15 VALID 181630/181800 LEVA
LECM MADRID FIR/UIR EMBD TS OBS AT 1630Z WI N3940 W007 - N3940 W00350 - N3840 W00330 - N3820 W007 - N3940 W007 TOP FL320 MOV WSW 20KT NC=
Annulation du SIGMET 13
LECM SIGMET 14 VALID 181628/181800 LEVA
LECM MADRID FIR/UIR CNL SIGMET 13 VALID 181619/182800=
SIGMET 13  ANNULÉ :
Orages noyés dans la masse
LECM SIGMET 13 VALID 181619/182800 LEVA
LECM MADRID FIR/UIR EMBD TS OBS AT 1619Z WI N3930 W007 - N3950 W00310 - N3830 W003 - N3810 W007 - N3930 W007 TOP FL320 MOV ESE 20KT NC=
Turbulence forte
LECM SIGMET 12 VALID 181500/181900 LEVA
LECM MADRID FIR/UIR SEV TURB OBS AT 1452Z S OF LINE N3630 W00720 - N3710 W00150 FL200/320 MOV E 20KT NC=



MET'MAP, la Météo Aéronautique d'un coup d'oeil ! - Copyright ORBIFLY Décembre 2007 - Disclaimer

ORBIFLY MET'MAP TEAM :

Programmation & Développement : Alexandra Zaïnal
Conception & Développement : Baudouin d'Aumeries
Co-Programmation & Développement : Marc-Olivier Méhu
Soutien technique & logistique : Manuel Goepfert

Contact : metmap@orbifly.com




SOURCES & CREDITS :

   NOAA